createdAt,value
2024-01-01T00:01:39.708Z,9.80
2024-01-01T00:04:12.416Z,9.32
2024-01-01T00:06:40.631Z,8.60
2024-01-01T00:09:11.630Z,9.90
2024-01-01T00:11:42.140Z,10.63
2024-01-01T00:14:12.851Z,12.07
2024-01-01T00:16:43.076Z,11.32
2024-01-01T00:19:14.026Z,13.27
2024-01-01T00:21:42.146Z,15.00
2024-01-01T00:24:10.220Z,14.25
2024-01-01T00:26:38.293Z,17.77
2024-01-01T00:29:17.078Z,17.27
2024-01-01T00:32:20.306Z,18.38
2024-01-01T00:34:49.513Z,20.17
2024-01-01T00:37:21.500Z,18.17
2024-01-01T00:39:49.839Z,22.17
2024-01-01T00:42:17.766Z,21.70
2024-01-01T00:44:46.405Z,21.33
2024-01-01T00:47:16.137Z,22.52
2024-01-01T00:49:44.471Z,23.48
2024-01-01T00:52:13.816Z,17.58
2024-01-01T00:54:41.676Z,21.70
2024-01-01T00:57:09.986Z,20.55
2024-01-01T00:59:38.959Z,18.58
2024-01-01T01:02:06.851Z,20.17
2024-01-01T01:04:35.434Z,20.17
2024-01-01T01:07:03.952Z,17.70
2024-01-01T01:09:33.385Z,13.88
2024-01-01T01:12:02.488Z,15.10
2024-01-01T01:14:30.342Z,13.23
2024-01-01T01:16:58.240Z,10.85
2024-01-01T01:19:26.069Z,10.63
2024-01-01T01:21:54.054Z,12.38
2024-01-01T01:24:21.907Z,11.10
2024-01-01T01:26:51.109Z,10.65
2024-01-01T01:29:19.183Z,9.05
2024-01-01T01:31:49.759Z,9.93
2024-01-01T01:34:17.692Z,8.77
2024-01-01T01:36:45.553Z,10.38
2024-01-01T01:39:42.035Z,8.13
2024-01-01T01:42:11.681Z,9.18
2024-01-01T01:44:41.356Z,8.88
2024-01-01T01:47:11.224Z,9.60
2024-01-01T01:49:40.581Z,9.35
2024-01-01T01:52:11.731Z,7.57
2024-01-01T01:54:41.704Z,9.10
2024-01-01T01:57:12.952Z,7.38
2024-01-01T01:59:43.952Z,8.70
2024-01-01T02:02:12.722Z,8.25
2024-01-01T02:04:41.859Z,8.00
2024-01-01T02:07:09.992Z,8.73
2024-01-01T02:09:39.916Z,8.05
2024-01-01T02:12:10.298Z,7.93
2024-01-01T02:14:39.697Z,8.45
2024-01-01T02:17:07.595Z,7.90
2024-01-01T02:19:38.200Z,7.35
2024-01-01T02:22:09.164Z,7.28
2024-01-01T02:24:38.674Z,6.95
2024-01-01T02:27:06.637Z,8.00
2024-01-01T02:29:34.445Z,7.97
2024-01-01T02:32:04.858Z,7.72
2024-01-01T02:34:32.820Z,6.70
2024-01-01T02:37:00.821Z,6.43
2024-01-01T02:39:28.936Z,6.75
2024-01-01T02:41:58.196Z,5.38
2024-01-01T02:44:26.618Z,7.75
2024-01-01T02:46:54.390Z,7.65
2024-01-01T02:49:22.308Z,6.45
2024-01-01T02:51:50.132Z,6.82
2024-01-01T02:54:18.060Z,8.30
2024-01-01T02:56:47.429Z,7.13
2024-01-01T02:59:18.132Z,7.95
2024-01-01T03:01:46.042Z,6.93
2024-01-01T03:04:13.894Z,8.25
2024-01-01T03:06:41.840Z,7.53
2024-01-01T03:09:09.757Z,8.10
2024-01-01T03:11:37.627Z,4.40
2024-01-01T03:14:05.531Z,5.18
2024-01-01T03:16:35.318Z,5.13
2024-01-01T03:19:05.062Z,3.40
2024-01-01T03:21:33.421Z,3.70
2024-01-01T03:24:01.348Z,2.40
2024-01-01T03:26:29.675Z,3.28
2024-01-01T03:29:01.464Z,2.72
2024-01-01T03:31:29.405Z,2.22
2024-01-01T03:33:59.043Z,2.13
2024-01-01T03:36:27.162Z,2.17
2024-01-01T03:38:55.036Z,2.15
2024-01-01T03:41:25.479Z,2.05
2024-01-01T03:43:53.713Z,2.65
2024-01-01T03:46:21.625Z,2.60
2024-01-01T03:48:49.679Z,3.25
2024-01-01T03:51:20.224Z,3.70
2024-01-01T03:54:19.884Z,2.75
2024-01-01T03:56:47.779Z,2.67
2024-01-01T03:59:15.690Z,2.50
2024-01-01T04:01:43.627Z,2.60
2024-01-01T04:04:12.174Z,2.35
2024-01-01T04:06:41.899Z,2.30
2024-01-01T04:09:09.824Z,2.20
2024-01-01T04:11:37.713Z,2.45
2024-01-01T04:14:05.893Z,2.28
2024-01-01T04:16:33.967Z,2.35
2024-01-01T04:19:02.225Z,2.42
2024-01-01T04:21:30.203Z,2.35
2024-01-01T04:23:59.572Z,2.78
2024-01-01T04:26:27.656Z,2.78
2024-01-01T04:28:55.487Z,2.90
2024-01-01T04:31:23.307Z,2.40
2024-01-01T04:33:51.231Z,2.20
2024-01-01T04:36:20.423Z,2.72
2024-01-01T04:38:48.495Z,2.28
2024-01-01T04:41:19.971Z,2.53
2024-01-01T04:43:47.884Z,3.13
2024-01-01T04:46:15.663Z,3.10
2024-01-01T04:48:44.658Z,2.45
2024-01-01T04:51:14.503Z,2.33
2024-01-01T04:53:42.508Z,3.47
2024-01-01T04:56:11.444Z,3.88
2024-01-01T04:58:41.089Z,2.92
2024-01-01T05:01:12.533Z,2.33
2024-01-01T05:03:41.514Z,2.55
2024-01-01T05:06:10.597Z,4.22
2024-01-01T05:08:39.371Z,3.45
2024-01-01T05:11:07.541Z,4.05
2024-01-01T05:13:35.579Z,3.17
2024-01-01T05:16:08.930Z,3.08
2024-01-01T05:18:36.997Z,4.55
2024-01-01T05:21:05.820Z,3.33
2024-01-01T05:23:36.116Z,4.72
2024-01-01T05:26:04.606Z,3.45
2024-01-01T05:28:32.617Z,3.60
2024-01-01T05:31:07.886Z,3.42
2024-01-01T05:33:36.928Z,2.25
2024-01-01T05:36:12.460Z,2.00
2024-01-01T05:38:42.443Z,3.53
2024-01-01T05:41:11.448Z,2.10
2024-01-01T05:43:39.676Z,2.90
2024-01-01T05:46:08.930Z,2.88
2024-01-01T05:48:40.843Z,2.67
2024-01-01T05:51:10.196Z,2.40
2024-01-01T05:53:38.698Z,2.20
2024-01-01T05:56:08.291Z,4.07
2024-01-01T05:58:36.333Z,1.70
2024-01-01T06:01:05.332Z,2.30
2024-01-01T06:03:34.676Z,1.60
2024-01-01T06:06:09.716Z,2.45
2024-01-01T06:08:37.624Z,2.65
2024-01-01T06:11:05.592Z,2.00
2024-01-01T06:13:35.968Z,1.85
2024-01-01T06:16:04.516Z,2.35
2024-01-01T06:18:34.619Z,1.77
2024-01-01T06:21:02.672Z,1.80
2024-01-01T06:23:30.861Z,3.15
2024-01-01T06:25:58.929Z,2.83
2024-01-01T06:28:27.616Z,2.03
2024-01-01T06:30:55.520Z,3.28
2024-01-01T06:33:23.506Z,2.08
2024-01-01T06:35:52.925Z,2.85
2024-01-01T06:38:21.721Z,1.92
2024-01-01T06:40:49.823Z,1.70
2024-01-01T06:43:19.205Z,2.85
2024-01-01T06:45:47.150Z,1.50
2024-01-01T06:48:15.278Z,1.60
2024-01-01T06:50:43.273Z,1.98
2024-01-01T06:53:12.893Z,2.53
2024-01-01T06:55:41.115Z,1.88
2024-01-01T06:58:09.390Z,1.08
2024-01-01T07:00:37.988Z,4.00
2024-01-01T07:03:06.498Z,1.60
2024-01-01T07:05:35.543Z,2.15
2024-01-01T07:08:05.666Z,1.45
2024-01-01T07:10:36.064Z,1.45
2024-01-01T07:13:04.482Z,1.48
2024-01-01T07:15:33.348Z,1.63
2024-01-01T07:18:03.128Z,1.50
2024-01-01T07:20:32.238Z,1.85
2024-01-01T07:23:02.432Z,1.98
2024-01-01T07:25:37.289Z,1.58
2024-01-01T07:28:07.149Z,2.08
2024-01-01T07:30:38.341Z,1.70
2024-01-01T07:33:07.233Z,1.58
2024-01-01T07:35:35.109Z,1.88
2024-01-01T07:38:05.954Z,1.42
2024-01-01T07:40:34.466Z,1.67
2024-01-01T07:43:04.565Z,1.52
2024-01-01T07:45:33.935Z,1.88
2024-01-01T07:48:02.124Z,2.03
2024-01-01T07:50:30.566Z,1.48
2024-01-01T07:52:58.594Z,2.35
2024-01-01T07:55:26.571Z,1.83
2024-01-01T07:57:55.946Z,1.63
2024-01-01T08:00:27.665Z,1.92
2024-01-01T08:02:56.034Z,2.00
2024-01-01T08:05:23.881Z,1.77
2024-01-01T08:07:52.356Z,1.92
2024-01-01T08:10:20.331Z,2.80
2024-01-01T08:12:48.917Z,3.20
2024-01-01T08:15:17.041Z,3.65
2024-01-01T08:17:46.282Z,1.85
2024-01-01T08:20:14.793Z,2.30
2024-01-01T08:22:42.796Z,1.15
2024-01-01T08:25:10.814Z,1.90
2024-01-01T08:27:38.712Z,1.15
2024-01-01T08:30:12.330Z,2.20
2024-01-01T08:32:41.088Z,1.45
2024-01-01T08:35:12.027Z,2.80
2024-01-01T08:37:40.518Z,3.15
2024-01-01T08:40:09.781Z,2.45
2024-01-01T08:42:37.870Z,2.88
2024-01-01T08:45:08.158Z,2.47
2024-01-01T08:47:37.413Z,2.28
2024-01-01T08:50:07.196Z,2.80
2024-01-01T08:52:36.432Z,2.00
2024-01-01T08:55:05.134Z,2.22
2024-01-01T08:57:33.059Z,1.98
2024-01-01T09:00:00.915Z,1.67
2024-01-01T09:02:33.001Z,1.90
2024-01-01T09:05:02.254Z,2.92
2024-01-01T09:07:30.176Z,2.75
2024-01-01T09:10:02.147Z,1.63
2024-01-01T09:12:30.716Z,3.50
2024-01-01T09:14:58.934Z,2.63
2024-01-01T09:17:27.172Z,2.00
2024-01-01T09:19:57.606Z,1.73
2024-01-01T09:22:25.712Z,2.08
2024-01-01T09:24:53.802Z,1.70
2024-01-01T09:27:23.398Z,2.70
2024-01-01T09:29:51.554Z,1.45
2024-01-01T09:32:19.703Z,1.92
2024-01-01T09:34:47.644Z,2.25
2024-01-01T09:37:15.679Z,2.03
2024-01-01T09:39:44.204Z,1.75
2024-01-01T09:42:12.150Z,2.03
2024-01-01T09:44:42.135Z,1.80
2024-01-01T09:47:11.796Z,1.60
2024-01-01T09:49:40.589Z,1.50
2024-01-01T09:52:08.513Z,1.50
2024-01-01T09:54:36.973Z,1.60
2024-01-01T09:57:07.923Z,1.40
2024-01-01T09:59:38.135Z,1.88
2024-01-01T10:02:09.754Z,1.48
2024-01-01T10:04:38.022Z,1.55
2024-01-01T10:07:07.210Z,1.40
2024-01-01T10:09:48.188Z,1.30
2024-01-01T10:12:21.844Z,1.50
2024-01-01T10:14:54.879Z,1.50
2024-01-01T10:17:26.982Z,1.67
2024-01-01T10:19:57.702Z,1.52
2024-01-01T10:22:29.924Z,1.25
2024-01-01T10:25:11.455Z,1.70
2024-01-01T10:27:39.891Z,1.20
2024-01-01T10:30:08.107Z,1.90
2024-01-01T10:32:38.649Z,1.52
2024-01-01T10:35:08.339Z,1.88
2024-01-01T10:37:37.467Z,1.55
2024-01-01T10:40:07.423Z,1.58
2024-01-01T10:42:36.065Z,1.63
2024-01-01T10:45:05.082Z,2.25
2024-01-01T10:47:34.015Z,1.30
2024-01-01T10:50:17.818Z,1.40
2024-01-01T10:53:01.408Z,1.33
2024-01-01T10:55:44.931Z,2.03
2024-01-01T10:58:24.651Z,1.70
2024-01-01T11:01:05.014Z,1.27
2024-01-01T11:03:35.322Z,1.50
2024-01-01T11:06:28.513Z,1.52
2024-01-01T11:08:57.178Z,1.47
2024-01-01T11:11:33.629Z,1.73
2024-01-01T11:14:02.079Z,2.03
2024-01-01T11:17:00.620Z,1.52
2024-01-01T11:19:39.127Z,2.53
2024-01-01T11:22:33.120Z,2.45
2024-01-01T11:25:03.162Z,1.65
2024-01-01T11:27:33.011Z,1.73
2024-01-01T11:30:02.983Z,1.70
2024-01-01T11:32:31.157Z,2.10
2024-01-01T11:35:10.135Z,1.75
2024-01-01T11:37:41.741Z,1.73
2024-01-01T11:40:13.339Z,1.85
2024-01-01T11:42:42.959Z,1.30
2024-01-01T11:45:13.385Z,1.25
2024-01-01T11:47:42.385Z,1.92
2024-01-01T11:50:13.173Z,1.65
2024-01-01T11:52:43.769Z,1.77
2024-01-01T11:55:12.492Z,1.55
2024-01-01T11:57:43.603Z,1.80
2024-01-01T12:00:13.658Z,1.35
2024-01-01T12:02:42.661Z,0.93
2024-01-01T12:05:10.741Z,1.98
2024-01-01T12:07:38.757Z,1.00
2024-01-01T12:10:10.197Z,1.08
2024-01-01T12:12:39.747Z,1.50
2024-01-01T12:15:09.985Z,1.45
2024-01-01T12:17:43.359Z,1.05
2024-01-01T12:22:42.122Z,1.20
2024-01-01T12:25:16.683Z,1.10
2024-01-01T12:28:00.308Z,1.25
2024-01-01T12:30:29.027Z,1.17
2024-01-01T12:32:58.586Z,1.95
2024-01-01T12:35:27.229Z,1.20
2024-01-01T12:37:55.541Z,2.47
2024-01-01T12:40:27.018Z,1.60
2024-01-01T12:42:54.942Z,1.77
2024-01-01T12:45:23.903Z,1.50
2024-01-01T12:47:52.126Z,1.85
2024-01-01T12:50:21.064Z,1.63
2024-01-01T12:52:49.120Z,1.50
2024-01-01T12:55:17.125Z,1.30
2024-01-01T12:57:46.520Z,2.20
2024-01-01T13:00:15.097Z,1.42
2024-01-01T13:02:43.160Z,1.50
2024-01-01T13:05:12.748Z,1.38
2024-01-01T13:07:41.785Z,1.70
2024-01-01T13:10:10.404Z,1.15
2024-01-01T13:12:38.296Z,1.45
2024-01-01T13:15:08.997Z,1.60
2024-01-01T13:17:37.070Z,1.83
2024-01-01T13:20:05.678Z,1.20
2024-01-01T13:22:33.678Z,2.15
2024-01-01T13:25:01.549Z,1.85
2024-01-01T13:27:33.781Z,1.80
2024-01-01T13:30:02.961Z,1.75
2024-01-01T13:32:33.412Z,1.20
2024-01-01T13:35:04.055Z,1.65
2024-01-01T13:37:32.692Z,1.85
2024-01-01T13:40:01.617Z,1.73
2024-01-01T13:42:29.882Z,1.65
2024-01-01T13:44:57.930Z,1.70
2024-01-01T13:47:26.456Z,1.63
2024-01-01T13:49:55.813Z,2.00
2024-01-01T13:52:23.762Z,1.77
2024-01-01T13:54:51.713Z,1.88
2024-01-01T13:57:19.926Z,1.55
2024-01-01T13:59:47.788Z,1.23
2024-01-01T14:02:17.088Z,1.70
2024-01-01T14:04:45.044Z,1.35
2024-01-01T14:07:15.612Z,1.90
2024-01-01T14:09:43.613Z,1.55
2024-01-01T14:12:11.384Z,1.55
2024-01-01T14:14:43.545Z,1.63
2024-01-01T14:17:11.572Z,1.55
2024-01-01T14:19:39.514Z,1.27
2024-01-01T14:22:07.339Z,2.00
2024-01-01T14:24:36.696Z,1.98
2024-01-01T14:27:08.059Z,2.15
2024-01-01T14:29:35.982Z,2.63
2024-01-01T14:32:07.912Z,2.67
2024-01-01T14:34:37.195Z,2.90
2024-01-01T14:37:08.030Z,2.80
2024-01-01T14:39:37.684Z,2.38
2024-01-01T14:42:06.040Z,1.67
2024-01-01T14:44:34.181Z,1.40
2024-01-01T14:47:03.699Z,0.90
2024-01-01T14:49:31.535Z,0.98
2024-01-01T14:51:59.422Z,1.38
2024-01-01T14:54:27.703Z,0.68
2024-01-01T14:56:58.439Z,0.68
2024-01-01T14:59:26.446Z,0.90
2024-01-01T15:01:57.931Z,0.90
2024-01-01T15:04:26.507Z,0.75
2024-01-01T15:06:54.504Z,0.73
2024-01-01T15:09:22.728Z,0.85
2024-01-01T15:11:53.082Z,0.93
2024-01-01T15:14:22.436Z,0.60
2024-01-01T15:16:50.401Z,0.93
2024-01-01T15:19:19.693Z,1.23
2024-01-01T15:21:47.547Z,1.30
2024-01-01T15:24:17.145Z,1.30
2024-01-01T15:26:45.203Z,2.42
2024-01-01T15:29:13.501Z,1.52
2024-01-01T15:31:42.914Z,2.13
2024-01-01T15:34:11.029Z,1.88
2024-01-01T15:36:41.718Z,2.00
2024-01-01T15:39:14.700Z,2.80
2024-01-01T15:41:42.569Z,1.80
2024-01-01T15:44:11.093Z,1.60
2024-01-01T15:46:39.117Z,0.85
2024-01-01T15:49:11.497Z,1.58
2024-01-01T15:51:40.266Z,1.08
2024-01-01T15:54:08.649Z,7.05
2024-01-01T15:56:40.752Z,1.50
2024-01-01T15:59:08.681Z,2.08
2024-01-01T16:01:36.512Z,2.03
2024-01-01T16:04:04.544Z,2.85
2024-01-01T16:06:33.813Z,2.90
2024-01-01T16:09:01.770Z,4.40
2024-01-01T16:11:29.778Z,2.92
2024-01-01T16:13:57.721Z,2.90
2024-01-01T16:16:25.776Z,2.95
2024-01-01T16:18:53.878Z,3.80
2024-01-01T16:21:22.138Z,6.07
2024-01-01T16:23:52.005Z,7.00
2024-01-01T16:26:19.988Z,7.78
2024-01-01T16:28:47.811Z,5.80
2024-01-01T16:31:20.669Z,4.25
2024-01-01T16:33:48.537Z,4.07
2024-01-01T16:36:17.298Z,3.63
2024-01-01T16:38:45.201Z,4.35
2024-01-01T16:41:15.153Z,2.83
2024-01-01T16:43:43.100Z,3.50
2024-01-01T16:46:10.961Z,3.22
2024-01-01T16:48:39.167Z,5.15
2024-01-01T16:51:07.462Z,3.20
2024-01-01T16:53:35.576Z,3.47
2024-01-01T16:56:03.657Z,3.63
2024-01-01T16:58:32.890Z,3.70
2024-01-01T17:01:01.283Z,2.88
2024-01-01T17:03:29.409Z,3.97
2024-01-01T17:06:01.695Z,3.78
2024-01-01T17:08:30.653Z,3.20
2024-01-01T17:10:58.738Z,3.22
2024-01-01T17:13:26.645Z,3.28
2024-01-01T17:15:56.149Z,3.38
2024-01-01T17:18:24.022Z,3.50
2024-01-01T17:20:52.000Z,5.50
2024-01-01T17:23:19.857Z,12.50
2024-01-01T17:25:47.732Z,6.15
2024-01-01T17:28:15.577Z,3.38
2024-01-01T17:30:43.460Z,3.28
2024-01-01T17:33:13.627Z,3.80
2024-01-01T17:35:41.626Z,2.92
2024-01-01T17:38:09.414Z,4.15
2024-01-01T17:40:37.224Z,3.65
2024-01-01T17:43:05.408Z,3.20
2024-01-01T17:45:33.418Z,3.90
2024-01-01T17:48:01.746Z,4.35
2024-01-01T17:50:31.355Z,3.13
2024-01-01T17:52:59.289Z,3.55
2024-01-01T17:55:27.109Z,4.13
2024-01-01T17:57:55.200Z,4.00
2024-01-01T18:00:23.077Z,3.42
2024-01-01T18:02:50.906Z,3.53
2024-01-01T18:05:18.857Z,4.55
2024-01-01T18:07:48.145Z,4.68
2024-01-01T18:10:16.109Z,3.58
2024-01-01T18:12:44.026Z,4.07
2024-01-01T18:15:13.093Z,5.18
2024-01-01T18:17:41.220Z,4.75
2024-01-01T18:20:11.044Z,4.00
2024-01-01T18:22:39.649Z,3.45
2024-01-01T18:25:12.120Z,4.10
2024-01-01T18:27:42.466Z,4.88
2024-01-01T18:30:11.136Z,5.38
2024-01-01T18:32:39.170Z,4.88
2024-01-01T18:35:07.805Z,3.78
2024-01-01T18:37:35.714Z,3.80
2024-01-01T18:40:03.814Z,3.70
2024-01-01T18:42:33.358Z,4.05
2024-01-01T18:45:01.240Z,4.95
2024-01-01T18:47:29.264Z,5.18
2024-01-01T18:49:57.508Z,3.63
2024-01-01T18:52:25.507Z,5.95
2024-01-01T18:54:53.868Z,6.65
2024-01-01T18:57:21.729Z,4.60
2024-01-01T18:59:55.294Z,4.95
2024-01-01T19:04:50.900Z,6.68
2024-01-01T19:07:18.789Z,5.70
2024-01-01T19:09:48.434Z,9.73
2024-01-01T19:12:16.348Z,6.10
2024-01-01T19:14:44.239Z,7.00
2024-01-01T19:17:13.589Z,7.38
2024-01-01T19:19:41.986Z,6.93
2024-01-01T19:22:10.273Z,10.10
2024-01-01T19:24:38.189Z,9.25
2024-01-01T19:27:06.037Z,12.65
2024-01-01T19:29:33.888Z,14.65
2024-01-01T19:32:02.306Z,10.68
2024-01-01T19:34:31.481Z,7.38
2024-01-01T19:36:59.368Z,3.58
2024-01-01T19:39:30.547Z,3.22
2024-01-01T19:41:58.466Z,3.03
2024-01-01T19:44:26.562Z,3.60
2024-01-01T19:46:54.656Z,3.15
2024-01-01T19:49:23.571Z,3.45
2024-01-01T19:51:52.972Z,3.80
2024-01-01T19:54:20.776Z,3.13
2024-01-01T19:56:49.219Z,2.90
2024-01-01T19:59:17.059Z,3.95
2024-01-01T20:01:45.353Z,4.03
2024-01-01T20:04:16.222Z,3.35
2024-01-01T20:06:44.947Z,3.42
2024-01-01T20:09:14.735Z,3.10
2024-01-01T20:11:42.853Z,3.15
2024-01-01T20:14:12.309Z,3.47
2024-01-01T20:16:40.913Z,3.50
2024-01-01T20:19:11.309Z,3.78
2024-01-01T20:21:42.252Z,3.67
2024-01-01T20:24:11.062Z,5.20
2024-01-01T20:26:42.571Z,7.20
2024-01-01T20:29:11.199Z,3.38
2024-01-01T20:31:39.191Z,4.72
2024-01-01T20:34:10.435Z,4.63
2024-01-01T20:36:40.935Z,4.15
2024-01-01T20:39:09.042Z,4.93
2024-01-01T20:41:37.124Z,3.90
2024-01-01T20:44:09.600Z,4.53
2024-01-01T20:46:38.105Z,3.80
2024-01-01T20:49:07.495Z,3.33
2024-01-01T20:51:35.501Z,4.72
2024-01-01T20:54:04.478Z,9.43
2024-01-01T20:56:34.182Z,10.20
2024-01-01T20:59:03.577Z,10.13
2024-01-01T21:01:32.826Z,8.13
2024-01-01T21:04:00.640Z,6.07
2024-01-01T21:06:28.531Z,5.97
2024-01-01T21:08:56.697Z,5.30
2024-01-01T21:11:24.738Z,4.45
2024-01-01T21:13:52.673Z,5.18
2024-01-01T21:16:21.066Z,5.38
2024-01-01T21:18:50.400Z,3.63
2024-01-01T21:21:29.294Z,4.30
2024-01-01T21:23:59.686Z,3.78
2024-01-01T21:26:29.190Z,4.00
2024-01-01T21:28:57.268Z,3.53
2024-01-01T21:31:25.228Z,3.90
2024-01-01T21:33:54.525Z,4.35
2024-01-01T21:36:22.372Z,4.75
2024-01-01T21:38:50.317Z,4.00
2024-01-01T21:41:18.204Z,3.83
2024-01-01T21:43:46.018Z,4.00
2024-01-01T21:46:13.840Z,4.75
2024-01-01T21:48:43.669Z,3.95
2024-01-01T21:51:12.924Z,4.00
2024-01-01T21:53:40.815Z,4.22
2024-01-01T21:56:08.718Z,4.18
2024-01-01T21:58:36.766Z,4.00
2024-01-01T22:01:04.714Z,3.78
2024-01-01T22:03:34.405Z,3.30
2024-01-01T22:06:02.465Z,3.45
2024-01-01T22:08:31.943Z,3.70
2024-01-01T22:11:00.610Z,3.53
2024-01-01T22:13:28.653Z,2.95
2024-01-01T22:15:56.509Z,3.78
2024-01-01T22:18:24.446Z,3.03
2024-01-01T22:20:52.268Z,3.65
2024-01-01T22:23:22.805Z,2.75
2024-01-01T22:25:52.016Z,3.80
2024-01-01T22:28:19.863Z,3.40
2024-01-01T22:30:47.666Z,3.08
2024-01-01T22:33:18.573Z,2.80
2024-01-01T22:35:46.423Z,2.55
2024-01-01T22:38:14.320Z,2.97
2024-01-01T22:40:43.064Z,3.10
2024-01-01T22:43:12.233Z,2.83
2024-01-01T22:45:40.499Z,2.90
2024-01-01T22:48:09.233Z,2.50
2024-01-01T22:50:37.544Z,2.38
2024-01-01T22:53:05.830Z,2.10
2024-01-01T22:55:33.976Z,2.10
2024-01-01T22:58:01.867Z,2.38
2024-01-01T23:00:31.496Z,2.42
2024-01-01T23:02:59.650Z,2.80
2024-01-01T23:05:27.851Z,2.50
2024-01-01T23:07:55.854Z,2.65
2024-01-01T23:10:28.484Z,2.72
2024-01-01T23:12:57.264Z,2.73
2024-01-01T23:15:26.800Z,2.83
2024-01-01T23:17:56.398Z,2.22
2024-01-01T23:20:24.285Z,2.50
2024-01-01T23:22:55.586Z,3.47
2024-01-01T23:25:23.670Z,2.50
2024-01-01T23:27:51.702Z,2.45
2024-01-01T23:30:19.664Z,2.47
2024-01-01T23:32:48.677Z,2.53
2024-01-01T23:35:19.203Z,2.42
2024-01-01T23:37:47.185Z,3.38
2024-01-01T23:40:17.058Z,2.78
2024-01-01T23:42:45.200Z,2.67
2024-01-01T23:45:13.132Z,2.47
2024-01-01T23:47:40.973Z,2.50
2024-01-01T23:50:09.509Z,2.88
2024-01-01T23:52:38.786Z,2.20
2024-01-01T23:55:07.252Z,2.83
2024-01-01T23:57:35.126Z,2.40
